Northfield, OH (44067)

2:47 AM EST on December 28, 2014 (GMT -0500)
Eaton Estate | Change Station
CLOSE
Current Station
Personal Weather Station
Location: Sagamore Hills, OH
Elevation: 902 ft
Nearby Weather Stations

Elev 902 ft 41.33 °N, 81.55 °W | Updated 2 seconds ago

Rain
Rain
36.4 °F
Feels Like 30 °F
N
8.0
Wind Variable Wind from NW
Gusts 15.0 mph

Today
High -- | Low -- °F
--% Chance of Precip.
Yesterday
High -- | Low -- °F
Precip. -- in
7:51 AM 5:04 PM
Waxing Crescent, 45% visible
Pressure 30.00 in
Visibility 8.0 miles
Clouds Scattered Clouds 700 ft
Overcast 2200 ft
Windchill 30 °F
Dew Point 35 °F
Humidity 95%
Rainfall 0.17 in
Snow Depth Not available.
UV 0 out of 12
Pollen .10 out of 12
Air Quality Not available.
Flu Activity Not available.
SPECI KBKL 280731Z AUTO 27011KT 8SM SCT007 OVC022 03/01 A3000 RMK AO2 RAE17UPB15E16 P0001 T00280011 TSNO

More Conditions Fewer Conditions

Pressure 30.00 in
Visibility 8.0 miles
Clouds Scattered Clouds 700 ft
Overcast 2200 ft
Windchill 30 °F
Dew Point 35 °F
Humidity 95%
Rainfall 0.17 in
Snow Depth Not available.
UV 0 out of 12
Pollen .10 out of 12
Air Quality Not available.
Flu Activity Not available.
SPECI KBKL 280731Z AUTO 27011KT 8SM SCT007 OVC022 03/01 A3000 RMK AO2 RAE17UPB15E16 P0001 T00280011 TSNO

More Conditions Fewer Conditions

10-Day Weather Forecast

Almanac

Astronomy

Dec. 28, 2014 Rise Set
Actual Time
Civil Twilight
Nautical Twilight
Astronomical Twilight
Moon
Length of Visible Light
Length of Day
Tomorrow will be .
, % of the Moon is Illuminated

Today's Extremes

State Highs State Lows

Community

WunderPhotos

Upload Photos

1,781,210 photos uploaded!

WunderBlogs® & News

Nearby

Air Quality

  Air Quality AQ Index Pollutant
Not available.

Snow Depth

Station Depth Elevation

Earthquake Activity

City Distance Mag. Time & Date
Minimum magnitude displayed is 2.5.

Coastal Water Temperatures

Place Temperature

Nearby Weather Stations